Plaza, Colorado
Current Conditions -  °F | °C
As of 7:30 PM on Tuesday 21 Oct 2014 (Local Time) from KRCV Reporting Station
Scattered Clouds Scattered Clouds  
Wind Chill: 50°   Ceiling: Unl
Heat Index: 50°   Visibility: 10mi
Dew Point: 35°   Wind: 6mph
Humidity: 56%   Direction: 250°WSW
Pressure: 30.14"   Gusts: NA
Location:  37.6359°N, 106.449°W
Report Text: KRCV 220130Z AUTO 25005KT 10SM SCT050 10/02 A3014 RMK AO2 T01000015
Loading
Personal Weather Stations






























Interactive Weather Map
Tropical Storm Tracking
New forecast layout! Learn more

10-Day Weather Forecast

Advertisements
Track Severe Weather on mobile